sensor_id;sensor_type;location;lat;lon;timestamp;P1;durP1;ratioP1;P2;durP2;ratioP2
39620;SDS011;25309;48.686;9.170;2023-09-08T00:00:46;5.87;;;5.13;;
39620;SDS011;25309;48.686;9.170;2023-09-08T00:03:13;6.20;;;5.60;;
39620;SDS011;25309;48.686;9.170;2023-09-08T00:05:42;6.70;;;5.57;;
39620;SDS011;25309;48.686;9.170;2023-09-08T00:08:09;6.30;;;5.40;;
39620;SDS011;25309;48.686;9.170;2023-09-08T00:10:36;7.87;;;5.33;;
39620;SDS011;25309;48.686;9.170;2023-09-08T00:13:03;6.43;;;5.27;;
39620;SDS011;25309;48.686;9.170;2023-09-08T00:15:33;6.33;;;5.73;;
39620;SDS011;25309;48.686;9.170;2023-09-08T00:18:00;5.87;;;5.27;;
39620;SDS011;25309;48.686;9.170;2023-09-08T00:20:27;6.47;;;5.30;;
39620;SDS011;25309;48.686;9.170;2023-09-08T00:22:55;8.33;;;5.53;;
39620;SDS011;25309;48.686;9.170;2023-09-08T00:25:22;6.60;;;5.80;;
39620;SDS011;25309;48.686;9.170;2023-09-08T00:27:49;6.50;;;5.30;;
39620;SDS011;25309;48.686;9.170;2023-09-08T00:30:16;7.03;;;5.80;;
39620;SDS011;25309;48.686;9.170;2023-09-08T00:32:43;6.47;;;5.70;;
39620;SDS011;25309;48.686;9.170;2023-09-08T00:35:11;6.23;;;5.63;;
39620;SDS011;25309;48.686;9.170;2023-09-08T00:37:39;6.23;;;5.50;;
39620;SDS011;25309;48.686;9.170;2023-09-08T00:40:08;6.93;;;5.70;;
39620;SDS011;25309;48.686;9.170;2023-09-08T00:42:36;8.00;;;5.80;;
39620;SDS011;25309;48.686;9.170;2023-09-08T00:45:03;7.37;;;5.70;;
39620;SDS011;25309;48.686;9.170;2023-09-08T00:47:31;6.77;;;5.60;;
39620;SDS011;25309;48.686;9.170;2023-09-08T00:50:00;6.50;;;5.77;;
39620;SDS011;25309;48.686;9.170;2023-09-08T00:52:28;6.70;;;6.00;;
39620;SDS011;25309;48.686;9.170;2023-09-08T00:54:58;6.83;;;5.70;;
39620;SDS011;25309;48.686;9.170;2023-09-08T00:57:27;7.00;;;5.50;;
39620;SDS011;25309;48.686;9.170;2023-09-08T00:59:54;9.07;;;5.83;;
39620;SDS011;25309;48.686;9.170;2023-09-08T01:02:21;7.03;;;6.00;;
39620;SDS011;25309;48.686;9.170;2023-09-08T01:04:49;7.73;;;5.97;;
39620;SDS011;25309;48.686;9.170;2023-09-08T01:07:16;6.50;;;5.60;;
39620;SDS011;25309;48.686;9.170;2023-09-08T01:09:47;7.03;;;5.50;;
39620;SDS011;25309;48.686;9.170;2023-09-08T01:12:15;6.83;;;6.13;;
39620;SDS011;25309;48.686;9.170;2023-09-08T01:14:43;6.37;;;5.50;;
39620;SDS011;25309;48.686;9.170;2023-09-08T01:17:10;6.97;;;5.70;;
39620;SDS011;25309;48.686;9.170;2023-09-08T01:19:38;7.00;;;5.63;;
39620;SDS011;25309;48.686;9.170;2023-09-08T01:22:21;6.33;;;5.40;;
39620;SDS011;25309;48.686;9.170;2023-09-08T01:27:50;6.63;;;5.43;;
39620;SDS011;25309;48.686;9.170;2023-09-08T01:30:18;12.33;;;5.67;;
39620;SDS011;25309;48.686;9.170;2023-09-08T01:32:47;8.67;;;5.67;;
39620;SDS011;25309;48.686;9.170;2023-09-08T01:35:16;5.80;;;5.20;;
39620;SDS011;25309;48.686;9.170;2023-09-08T01:37:44;7.00;;;5.67;;
39620;SDS011;25309;48.686;9.170;2023-09-08T01:40:12;6.67;;;5.40;;
39620;SDS011;25309;48.686;9.170;2023-09-08T01:42:41;7.70;;;5.67;;
39620;SDS011;25309;48.686;9.170;2023-09-08T01:45:08;6.50;;;5.47;;
39620;SDS011;25309;48.686;9.170;2023-09-08T01:47:36;6.07;;;5.47;;
39620;SDS011;25309;48.686;9.170;2023-09-08T01:50:04;6.70;;;5.40;;
39620;SDS011;25309;48.686;9.170;2023-09-08T01:52:32;6.20;;;5.10;;
39620;SDS011;25309;48.686;9.170;2023-09-08T01:55:00;5.90;;;5.30;;
39620;SDS011;25309;48.686;9.170;2023-09-08T01:57:28;5.90;;;5.27;;
39620;SDS011;25309;48.686;9.170;2023-09-08T01:59:56;7.43;;;5.80;;
39620;SDS011;25309;48.686;9.170;2023-09-08T02:02:24;6.10;;;5.50;;
39620;SDS011;25309;48.686;9.170;2023-09-08T02:04:51;7.77;;;5.53;;
39620;SDS011;25309;48.686;9.170;2023-09-08T02:07:18;7.57;;;5.53;;
39620;SDS011;25309;48.686;9.170;2023-09-08T02:09:48;7.33;;;5.60;;
39620;SDS011;25309;48.686;9.170;2023-09-08T02:12:15;7.07;;;5.57;;
39620;SDS011;25309;48.686;9.170;2023-09-08T02:14:42;6.77;;;6.10;;
39620;SDS011;25309;48.686;9.170;2023-09-08T02:17:10;7.03;;;6.10;;
39620;SDS011;25309;48.686;9.170;2023-09-08T02:19:37;6.90;;;5.60;;
39620;SDS011;25309;48.686;9.170;2023-09-08T02:22:04;6.33;;;5.50;;
39620;SDS011;25309;48.686;9.170;2023-09-08T02:24:31;6.57;;;5.40;;
39620;SDS011;25309;48.686;9.170;2023-09-08T02:26:58;7.57;;;5.83;;
39620;SDS011;25309;48.686;9.170;2023-09-08T02:29:25;6.33;;;5.70;;
39620;SDS011;25309;48.686;9.170;2023-09-08T02:31:52;6.70;;;5.87;;
39620;SDS011;25309;48.686;9.170;2023-09-08T02:34:21;7.93;;;6.00;;
39620;SDS011;25309;48.686;9.170;2023-09-08T02:36:48;7.93;;;5.70;;
39620;SDS011;25309;48.686;9.170;2023-09-08T02:39:21;7.13;;;5.47;;
39620;SDS011;25309;48.686;9.170;2023-09-08T02:41:49;6.70;;;5.53;;
39620;SDS011;25309;48.686;9.170;2023-09-08T02:44:17;8.33;;;5.93;;
39620;SDS011;25309;48.686;9.170;2023-09-08T02:46:45;6.90;;;5.83;;
39620;SDS011;25309;48.686;9.170;2023-09-08T02:49:12;6.53;;;5.70;;
39620;SDS011;25309;48.686;9.170;2023-09-08T02:51:40;7.00;;;5.63;;
39620;SDS011;25309;48.686;9.170;2023-09-08T02:54:07;7.90;;;6.03;;
39620;SDS011;25309;48.686;9.170;2023-09-08T02:56:36;7.60;;;5.97;;
39620;SDS011;25309;48.686;9.170;2023-09-08T02:59:03;8.00;;;5.97;;
39620;SDS011;25309;48.686;9.170;2023-09-08T03:01:30;5.90;;;5.30;;
39620;SDS011;25309;48.686;9.170;2023-09-08T03:03:57;6.53;;;5.83;;
39620;SDS011;25309;48.686;9.170;2023-09-08T03:06:24;6.53;;;5.40;;
39620;SDS011;25309;48.686;9.170;2023-09-08T03:08:52;6.63;;;5.83;;
39620;SDS011;25309;48.686;9.170;2023-09-08T03:11:19;7.30;;;6.13;;
39620;SDS011;25309;48.686;9.170;2023-09-08T03:13:46;6.83;;;6.13;;
39620;SDS011;25309;48.686;9.170;2023-09-08T03:16:13;6.73;;;5.80;;
39620;SDS011;25309;48.686;9.170;2023-09-08T03:18:41;7.77;;;6.20;;
39620;SDS011;25309;48.686;9.170;2023-09-08T03:21:08;7.57;;;5.80;;
39620;SDS011;25309;48.686;9.170;2023-09-08T03:23:38;6.43;;;5.77;;
39620;SDS011;25309;48.686;9.170;2023-09-08T03:26:07;7.63;;;5.40;;
39620;SDS011;25309;48.686;9.170;2023-09-08T03:28:35;8.60;;;5.97;;
39620;SDS011;25309;48.686;9.170;2023-09-08T03:31:04;6.20;;;5.60;;
39620;SDS011;25309;48.686;9.170;2023-09-08T03:33:33;6.83;;;5.53;;
39620;SDS011;25309;48.686;9.170;2023-09-08T03:36:01;6.93;;;6.10;;
39620;SDS011;25309;48.686;9.170;2023-09-08T03:38:29;6.67;;;5.77;;
39620;SDS011;25309;48.686;9.170;2023-09-08T03:40:56;6.47;;;5.80;;
39620;SDS011;25309;48.686;9.170;2023-09-08T03:43:25;6.10;;;5.47;;
39620;SDS011;25309;48.686;9.170;2023-09-08T03:45:52;7.23;;;6.03;;
39620;SDS011;25309;48.686;9.170;2023-09-08T03:48:20;7.80;;;5.83;;
39620;SDS011;25309;48.686;9.170;2023-09-08T03:50:47;7.63;;;6.23;;
39620;SDS011;25309;48.686;9.170;2023-09-08T03:53:14;7.80;;;6.00;;
39620;SDS011;25309;48.686;9.170;2023-09-08T03:55:41;8.00;;;6.40;;
39620;SDS011;25309;48.686;9.170;2023-09-08T03:58:08;6.87;;;6.17;;
39620;SDS011;25309;48.686;9.170;2023-09-08T04:00:36;8.83;;;6.27;;
39620;SDS011;25309;48.686;9.170;2023-09-08T04:03:04;7.90;;;6.70;;
39620;SDS011;25309;48.686;9.170;2023-09-08T04:05:31;8.53;;;6.60;;
39620;SDS011;25309;48.686;9.170;2023-09-08T04:07:58;8.73;;;6.37;;
39620;SDS011;25309;48.686;9.170;2023-09-08T04:10:25;8.70;;;6.67;;
39620;SDS011;25309;48.686;9.170;2023-09-08T04:12:52;6.70;;;6.00;;
39620;SDS011;25309;48.686;9.170;2023-09-08T04:15:19;6.97;;;6.20;;
39620;SDS011;25309;48.686;9.170;2023-09-08T04:17:47;7.90;;;6.47;;
39620;SDS011;25309;48.686;9.170;2023-09-08T04:20:14;8.17;;;6.97;;
39620;SDS011;25309;48.686;9.170;2023-09-08T04:22:42;8.47;;;6.90;;
39620;SDS011;25309;48.686;9.170;2023-09-08T04:25:09;7.10;;;6.40;;
39620;SDS011;25309;48.686;9.170;2023-09-08T04:27:37;8.77;;;6.63;;
39620;SDS011;25309;48.686;9.170;2023-09-08T04:30:04;8.47;;;6.70;;
39620;SDS011;25309;48.686;9.170;2023-09-08T04:32:33;7.13;;;6.43;;
39620;SDS011;25309;48.686;9.170;2023-09-08T04:35:01;7.33;;;6.20;;
39620;SDS011;25309;48.686;9.170;2023-09-08T04:37:28;6.87;;;6.17;;
39620;SDS011;25309;48.686;9.170;2023-09-08T04:39:56;7.40;;;6.53;;
39620;SDS011;25309;48.686;9.170;2023-09-08T04:42:24;7.97;;;6.63;;
39620;SDS011;25309;48.686;9.170;2023-09-08T04:44:52;7.23;;;6.27;;
39620;SDS011;25309;48.686;9.170;2023-09-08T04:47:19;7.80;;;6.70;;
39620;SDS011;25309;48.686;9.170;2023-09-08T04:49:46;9.20;;;7.00;;
39620;SDS011;25309;48.686;9.170;2023-09-08T04:52:15;7.40;;;6.60;;
39620;SDS011;25309;48.686;9.170;2023-09-08T04:54:42;6.93;;;6.03;;
39620;SDS011;25309;48.686;9.170;2023-09-08T04:57:09;9.23;;;6.20;;
39620;SDS011;25309;48.686;9.170;2023-09-08T04:59:50;7.90;;;6.47;;
39620;SDS011;25309;48.686;9.170;2023-09-08T05:02:18;7.97;;;6.10;;
39620;SDS011;25309;48.686;9.170;2023-09-08T05:04:45;8.07;;;6.70;;
39620;SDS011;25309;48.686;9.170;2023-09-08T05:07:12;9.07;;;7.17;;
39620;SDS011;25309;48.686;9.170;2023-09-08T05:09:41;8.90;;;7.10;;
39620;SDS011;25309;48.686;9.170;2023-09-08T05:12:08;7.57;;;6.27;;
39620;SDS011;25309;48.686;9.170;2023-09-08T05:14:36;7.60;;;6.37;;
39620;SDS011;25309;48.686;9.170;2023-09-08T05:17:03;6.53;;;5.93;;
39620;SDS011;25309;48.686;9.170;2023-09-08T05:19:31;6.80;;;6.10;;
39620;SDS011;25309;48.686;9.170;2023-09-08T05:21:58;8.07;;;6.60;;
39620;SDS011;25309;48.686;9.170;2023-09-08T05:24:26;7.80;;;6.37;;
39620;SDS011;25309;48.686;9.170;2023-09-08T05:26:53;7.10;;;6.40;;
39620;SDS011;25309;48.686;9.170;2023-09-08T05:29:21;7.97;;;6.73;;
39620;SDS011;25309;48.686;9.170;2023-09-08T05:31:49;8.50;;;6.90;;
39620;SDS011;25309;48.686;9.170;2023-09-08T05:34:16;8.03;;;6.87;;
39620;SDS011;25309;48.686;9.170;2023-09-08T05:36:43;8.87;;;7.37;;
39620;SDS011;25309;48.686;9.170;2023-09-08T05:39:11;8.90;;;6.90;;
39620;SDS011;25309;48.686;9.170;2023-09-08T05:41:42;9.20;;;7.33;;
39620;SDS011;25309;48.686;9.170;2023-09-08T05:44:09;7.97;;;7.00;;
39620;SDS011;25309;48.686;9.170;2023-09-08T05:46:36;7.33;;;6.17;;
39620;SDS011;25309;48.686;9.170;2023-09-08T05:49:03;8.83;;;6.60;;
39620;SDS011;25309;48.686;9.170;2023-09-08T05:51:31;8.47;;;6.77;;
39620;SDS011;25309;48.686;9.170;2023-09-08T05:54:00;8.90;;;6.50;;
39620;SDS011;25309;48.686;9.170;2023-09-08T05:56:29;8.60;;;6.80;;
39620;SDS011;25309;48.686;9.170;2023-09-08T05:58:58;8.67;;;6.37;;
39620;SDS011;25309;48.686;9.170;2023-09-08T06:01:27;8.40;;;6.57;;
39620;SDS011;25309;48.686;9.170;2023-09-08T06:03:55;8.70;;;7.33;;
39620;SDS011;25309;48.686;9.170;2023-09-08T06:06:24;10.70;;;8.90;;
39620;SDS011;25309;48.686;9.170;2023-09-08T06:08:51;10.57;;;8.60;;
39620;SDS011;25309;48.686;9.170;2023-09-08T06:11:19;9.97;;;8.87;;
39620;SDS011;25309;48.686;9.170;2023-09-08T06:13:46;10.27;;;8.30;;
39620;SDS011;25309;48.686;9.170;2023-09-08T06:16:15;10.60;;;8.50;;
39620;SDS011;25309;48.686;9.170;2023-09-08T06:18:42;9.60;;;7.93;;
39620;SDS011;25309;48.686;9.170;2023-09-08T06:21:14;8.87;;;7.87;;
39620;SDS011;25309;48.686;9.170;2023-09-08T06:23:42;9.47;;;8.13;;
39620;SDS011;25309;48.686;9.170;2023-09-08T06:26:11;9.40;;;8.40;;
39620;SDS011;25309;48.686;9.170;2023-09-08T06:28:38;9.37;;;7.97;;
39620;SDS011;25309;48.686;9.170;2023-09-08T06:31:08;9.00;;;8.10;;
39620;SDS011;25309;48.686;9.170;2023-09-08T06:33:38;9.83;;;7.90;;
39620;SDS011;25309;48.686;9.170;2023-09-08T06:36:05;8.77;;;7.37;;
39620;SDS011;25309;48.686;9.170;2023-09-08T06:38:33;8.70;;;7.37;;
39620;SDS011;25309;48.686;9.170;2023-09-08T06:41:07;7.90;;;7.10;;
39620;SDS011;25309;48.686;9.170;2023-09-08T06:43:35;8.47;;;7.27;;
39620;SDS011;25309;48.686;9.170;2023-09-08T06:46:07;7.73;;;6.93;;
39620;SDS011;25309;48.686;9.170;2023-09-08T06:48:35;8.90;;;7.57;;
39620;SDS011;25309;48.686;9.170;2023-09-08T06:51:04;8.77;;;7.43;;
39620;SDS011;25309;48.686;9.170;2023-09-08T06:53:31;8.73;;;7.77;;
39620;SDS011;25309;48.686;9.170;2023-09-08T06:55:59;7.93;;;7.13;;
39620;SDS011;25309;48.686;9.170;2023-09-08T06:58:26;7.40;;;6.03;;
39620;SDS011;25309;48.686;9.170;2023-09-08T07:00:53;8.07;;;7.13;;
39620;SDS011;25309;48.686;9.170;2023-09-08T07:03:22;8.07;;;7.10;;
39620;SDS011;25309;48.686;9.170;2023-09-08T07:05:50;9.00;;;7.07;;
39620;SDS011;25309;48.686;9.170;2023-09-08T07:08:19;8.13;;;6.87;;
39620;SDS011;25309;48.686;9.170;2023-09-08T07:10:51;8.33;;;7.33;;
39620;SDS011;25309;48.686;9.170;2023-09-08T07:13:19;11.60;;;7.57;;
39620;SDS011;25309;48.686;9.170;2023-09-08T07:15:47;10.10;;;8.43;;
39620;SDS011;25309;48.686;9.170;2023-09-08T07:18:14;9.03;;;7.70;;
39620;SDS011;25309;48.686;9.170;2023-09-08T07:20:45;10.97;;;8.87;;
39620;SDS011;25309;48.686;9.170;2023-09-08T07:23:13;12.30;;;8.47;;
39620;SDS011;25309;48.686;9.170;2023-09-08T07:25:44;9.63;;;7.97;;
39620;SDS011;25309;48.686;9.170;2023-09-08T07:28:12;8.63;;;7.03;;
39620;SDS011;25309;48.686;9.170;2023-09-08T07:30:39;9.43;;;7.87;;
39620;SDS011;25309;48.686;9.170;2023-09-08T07:33:06;9.97;;;7.30;;
39620;SDS011;25309;48.686;9.170;2023-09-08T07:35:35;9.27;;;7.07;;
39620;SDS011;25309;48.686;9.170;2023-09-08T07:38:03;6.93;;;6.20;;
39620;SDS011;25309;48.686;9.170;2023-09-08T07:40:31;9.53;;;7.60;;
39620;SDS011;25309;48.686;9.170;2023-09-08T07:43:00;8.90;;;5.80;;
39620;SDS011;25309;48.686;9.170;2023-09-08T07:45:27;8.67;;;7.37;;
39620;SDS011;25309;48.686;9.170;2023-09-08T07:47:54;8.23;;;7.00;;
39620;SDS011;25309;48.686;9.170;2023-09-08T07:50:22;9.37;;;7.33;;
39620;SDS011;25309;48.686;9.170;2023-09-08T07:52:51;9.10;;;7.57;;
39620;SDS011;25309;48.686;9.170;2023-09-08T07:55:19;10.50;;;7.53;;
39620;SDS011;25309;48.686;9.170;2023-09-08T07:57:50;9.27;;;7.90;;
39620;SDS011;25309;48.686;9.170;2023-09-08T08:00:19;8.27;;;6.50;;
39620;SDS011;25309;48.686;9.170;2023-09-08T08:02:47;9.50;;;7.20;;
39620;SDS011;25309;48.686;9.170;2023-09-08T08:05:15;9.63;;;8.00;;
39620;SDS011;25309;48.686;9.170;2023-09-08T08:07:43;9.27;;;6.67;;
39620;SDS011;25309;48.686;9.170;2023-09-08T08:10:11;9.53;;;7.77;;
39620;SDS011;25309;48.686;9.170;2023-09-08T08:12:39;6.67;;;5.97;;
39620;SDS011;25309;48.686;9.170;2023-09-08T08:15:07;7.60;;;6.80;;
39620;SDS011;25309;48.686;9.170;2023-09-08T08:17:38;7.97;;;6.13;;
39620;SDS011;25309;48.686;9.170;2023-09-08T08:20:06;7.13;;;5.63;;
39620;SDS011;25309;48.686;9.170;2023-09-08T08:22:36;10.23;;;7.40;;
39620;SDS011;25309;48.686;9.170;2023-09-08T08:25:03;9.40;;;6.83;;
39620;SDS011;25309;48.686;9.170;2023-09-08T08:27:31;6.57;;;5.70;;
39620;SDS011;25309;48.686;9.170;2023-09-08T08:29:58;10.90;;;7.47;;
39620;SDS011;25309;48.686;9.170;2023-09-08T08:32:27;7.20;;;6.30;;
39620;SDS011;25309;48.686;9.170;2023-09-08T08:34:56;8.33;;;7.00;;
39620;SDS011;25309;48.686;9.170;2023-09-08T08:37:23;7.40;;;5.73;;
39620;SDS011;25309;48.686;9.170;2023-09-08T08:39:50;7.17;;;5.23;;
39620;SDS011;25309;48.686;9.170;2023-09-08T08:42:17;8.23;;;6.57;;
39620;SDS011;25309;48.686;9.170;2023-09-08T08:44:48;7.80;;;6.67;;
39620;SDS011;25309;48.686;9.170;2023-09-08T08:47:16;7.27;;;5.00;;
39620;SDS011;25309;48.686;9.170;2023-09-08T08:49:45;10.10;;;6.37;;
39620;SDS011;25309;48.686;9.170;2023-09-08T08:52:15;8.13;;;6.20;;
39620;SDS011;25309;48.686;9.170;2023-09-08T08:54:44;7.33;;;5.77;;
39620;SDS011;25309;48.686;9.170;2023-09-08T08:57:14;7.20;;;5.67;;
39620;SDS011;25309;48.686;9.170;2023-09-08T08:59:42;7.13;;;5.00;;
39620;SDS011;25309;48.686;9.170;2023-09-08T09:02:11;6.40;;;5.70;;
39620;SDS011;25309;48.686;9.170;2023-09-08T09:04:38;7.53;;;5.70;;
39620;SDS011;25309;48.686;9.170;2023-09-08T09:07:06;6.83;;;5.50;;
39620;SDS011;25309;48.686;9.170;2023-09-08T09:09:35;8.33;;;5.40;;
39620;SDS011;25309;48.686;9.170;2023-09-08T09:12:02;7.27;;;6.40;;
39620;SDS011;25309;48.686;9.170;2023-09-08T09:14:31;8.10;;;5.90;;
39620;SDS011;25309;48.686;9.170;2023-09-08T09:16:59;6.30;;;5.70;;
39620;SDS011;25309;48.686;9.170;2023-09-08T09:19:27;6.95;;;5.38;;
39620;SDS011;25309;48.686;9.170;2023-09-08T09:21:56;5.80;;;5.30;;
39620;SDS011;25309;48.686;9.170;2023-09-08T09:24:33;7.07;;;5.88;;
39620;SDS011;25309;48.686;9.170;2023-09-08T09:27:05;6.50;;;5.63;;
39620;SDS011;25309;48.686;9.170;2023-09-08T09:29:33;6.03;;;5.38;;
39620;SDS011;25309;48.686;9.170;2023-09-08T09:32:09;6.82;;;6.13;;
39620;SDS011;25309;48.686;9.170;2023-09-08T09:34:36;5.68;;;5.18;;
39620;SDS011;25309;48.686;9.170;2023-09-08T09:37:14;5.38;;;4.88;;
39620;SDS011;25309;48.686;9.170;2023-09-08T09:39:45;6.10;;;5.03;;
39620;SDS011;25309;48.686;9.170;2023-09-08T09:42:15;6.47;;;5.30;;
39620;SDS011;25309;48.686;9.170;2023-09-08T09:44:42;7.07;;;5.75;;
39620;SDS011;25309;48.686;9.170;2023-09-08T09:47:09;6.03;;;5.40;;
39620;SDS011;25309;48.686;9.170;2023-09-08T09:49:41;6.78;;;4.88;;
39620;SDS011;25309;48.686;9.170;2023-09-08T09:52:09;5.35;;;4.75;;
39620;SDS011;25309;48.686;9.170;2023-09-08T09:54:39;6.38;;;5.57;;
39620;SDS011;25309;48.686;9.170;2023-09-08T09:57:08;6.50;;;4.80;;
39620;SDS011;25309;48.686;9.170;2023-09-08T09:59:39;6.63;;;5.18;;
39620;SDS011;25309;48.686;9.170;2023-09-08T10:02:07;7.30;;;5.30;;
39620;SDS011;25309;48.686;9.170;2023-09-08T10:04:38;5.60;;;5.10;;
39620;SDS011;25309;48.686;9.170;2023-09-08T10:07:06;6.40;;;4.95;;
39620;SDS011;25309;48.686;9.170;2023-09-08T10:09:35;5.63;;;5.03;;
39620;SDS011;25309;48.686;9.170;2023-09-08T10:12:03;7.13;;;5.03;;
39620;SDS011;25309;48.686;9.170;2023-09-08T10:14:34;6.55;;;5.95;;
39620;SDS011;25309;48.686;9.170;2023-09-08T10:17:02;5.55;;;4.63;;
39620;SDS011;25309;48.686;9.170;2023-09-08T10:19:35;5.55;;;5.00;;
39620;SDS011;25309;48.686;9.170;2023-09-08T10:22:11;6.40;;;5.10;;
39620;SDS011;25309;48.686;9.170;2023-09-08T10:24:42;6.00;;;5.00;;
39620;SDS011;25309;48.686;9.170;2023-09-08T10:27:12;6.25;;;5.32;;
39620;SDS011;25309;48.686;9.170;2023-09-08T10:29:40;6.10;;;5.40;;
39620;SDS011;25309;48.686;9.170;2023-09-08T10:32:08;6.15;;;5.55;;
39620;SDS011;25309;48.686;9.170;2023-09-08T10:34:36;5.72;;;5.07;;
39620;SDS011;25309;48.686;9.170;2023-09-08T10:37:17;6.20;;;5.60;;
39620;SDS011;25309;48.686;9.170;2023-09-08T10:39:45;6.32;;;5.72;;
39620;SDS011;25309;48.686;9.170;2023-09-08T10:42:21;5.43;;;4.93;;
39620;SDS011;25309;48.686;9.170;2023-09-08T10:44:57;6.18;;;5.45;;
39620;SDS011;25309;48.686;9.170;2023-09-08T10:47:25;6.20;;;5.53;;
39620;SDS011;25309;48.686;9.170;2023-09-08T10:49:57;6.90;;;5.28;;
39620;SDS011;25309;48.686;9.170;2023-09-08T10:52:26;7.75;;;5.50;;
39620;SDS011;25309;48.686;9.170;2023-09-08T10:54:55;6.22;;;5.10;;
39620;SDS011;25309;48.686;9.170;2023-09-08T10:57:23;6.38;;;5.13;;
39620;SDS011;25309;48.686;9.170;2023-09-08T10:59:51;5.80;;;5.13;;
39620;SDS011;25309;48.686;9.170;2023-09-08T11:02:33;6.35;;;5.00;;
39620;SDS011;25309;48.686;9.170;2023-09-08T11:05:06;7.35;;;5.18;;
39620;SDS011;25309;48.686;9.170;2023-09-08T11:07:35;5.93;;;5.00;;
39620;SDS011;25309;48.686;9.170;2023-09-08T11:10:02;8.40;;;5.28;;
39620;SDS011;25309;48.686;9.170;2023-09-08T11:12:29;4.85;;;4.45;;
39620;SDS011;25309;48.686;9.170;2023-09-08T11:14:56;5.78;;;5.15;;
39620;SDS011;25309;48.686;9.170;2023-09-08T11:17:25;5.75;;;5.15;;
39620;SDS011;25309;48.686;9.170;2023-09-08T11:19:54;7.72;;;5.00;;
39620;SDS011;25309;48.686;9.170;2023-09-08T11:22:22;5.72;;;5.13;;
39620;SDS011;25309;48.686;9.170;2023-09-08T11:24:51;5.80;;;5.30;;
39620;SDS011;25309;48.686;9.170;2023-09-08T11:27:18;5.75;;;4.93;;
39620;SDS011;25309;48.686;9.170;2023-09-08T11:29:47;6.10;;;5.32;;
39620;SDS011;25309;48.686;9.170;2023-09-08T11:32:14;6.78;;;5.03;;
39620;SDS011;25309;48.686;9.170;2023-09-08T11:34:41;5.45;;;4.93;;
39620;SDS011;25309;48.686;9.170;2023-09-08T11:37:10;5.22;;;4.72;;
39620;SDS011;25309;48.686;9.170;2023-09-08T11:39:39;6.63;;;5.05;;
39620;SDS011;25309;48.686;9.170;2023-09-08T11:42:07;5.53;;;5.03;;
39620;SDS011;25309;48.686;9.170;2023-09-08T11:44:35;5.47;;;4.47;;
39620;SDS011;25309;48.686;9.170;2023-09-08T11:47:03;5.88;;;5.18;;
39620;SDS011;25309;48.686;9.170;2023-09-08T11:49:33;6.32;;;4.93;;
39620;SDS011;25309;48.686;9.170;2023-09-08T11:52:01;5.55;;;5.05;;
39620;SDS011;25309;48.686;9.170;2023-09-08T11:54:30;5.50;;;5.00;;
39620;SDS011;25309;48.686;9.170;2023-09-08T11:56:58;5.43;;;4.93;;
39620;SDS011;25309;48.686;9.170;2023-09-08T11:59:26;7.28;;;5.18;;
39620;SDS011;25309;48.686;9.170;2023-09-08T12:01:55;6.18;;;5.30;;
39620;SDS011;25309;48.686;9.170;2023-09-08T12:04:23;5.78;;;4.80;;
39620;SDS011;25309;48.686;9.170;2023-09-08T12:06:51;5.78;;;5.00;;
39620;SDS011;25309;48.686;9.170;2023-09-08T12:09:20;5.88;;;5.28;;
39620;SDS011;25309;48.686;9.170;2023-09-08T12:11:49;6.40;;;5.13;;
39620;SDS011;25309;48.686;9.170;2023-09-08T12:14:16;5.50;;;5.00;;
39620;SDS011;25309;48.686;9.170;2023-09-08T12:16:43;5.45;;;4.95;;
39620;SDS011;25309;48.686;9.170;2023-09-08T12:21:58;7.45;;;5.47;;
39620;SDS011;25309;48.686;9.170;2023-09-08T12:24:47;5.55;;;5.03;;
39620;SDS011;25309;48.686;9.170;2023-09-08T12:27:26;6.18;;;5.30;;
39620;SDS011;25309;48.686;9.170;2023-09-08T12:29:57;5.53;;;5.00;;
39620;SDS011;25309;48.686;9.170;2023-09-08T12:32:25;6.68;;;5.22;;
39620;SDS011;25309;48.686;9.170;2023-09-08T12:34:54;5.68;;;5.00;;
39620;SDS011;25309;48.686;9.170;2023-09-08T12:37:22;6.25;;;5.00;;
39620;SDS011;25309;48.686;9.170;2023-09-08T12:39:50;5.85;;;5.25;;
39620;SDS011;25309;48.686;9.170;2023-09-08T12:42:17;5.90;;;4.65;;
39620;SDS011;25309;48.686;9.170;2023-09-08T12:44:46;6.35;;;5.07;;
39620;SDS011;25309;48.686;9.170;2023-09-08T12:47:13;5.82;;;4.85;;
39620;SDS011;25309;48.686;9.170;2023-09-08T12:49:41;5.30;;;4.55;;
39620;SDS011;25309;48.686;9.170;2023-09-08T12:52:08;6.97;;;4.72;;
39620;SDS011;25309;48.686;9.170;2023-09-08T12:54:35;5.70;;;5.07;;
39620;SDS011;25309;48.686;9.170;2023-09-08T12:57:03;6.13;;;4.90;;
39620;SDS011;25309;48.686;9.170;2023-09-08T12:59:32;6.43;;;5.05;;
39620;SDS011;25309;48.686;9.170;2023-09-08T13:02:00;6.93;;;5.30;;
39620;SDS011;25309;48.686;9.170;2023-09-08T13:04:27;6.45;;;5.65;;
39620;SDS011;25309;48.686;9.170;2023-09-08T13:06:54;6.00;;;5.40;;
39620;SDS011;25309;48.686;9.170;2023-09-08T13:09:21;6.90;;;5.00;;
39620;SDS011;25309;48.686;9.170;2023-09-08T13:11:48;5.13;;;4.53;;
39620;SDS011;25309;48.686;9.170;2023-09-08T13:14:17;5.75;;;4.88;;
39620;SDS011;25309;48.686;9.170;2023-09-08T13:16:44;6.78;;;5.28;;
39620;SDS011;25309;48.686;9.170;2023-09-08T13:19:13;5.50;;;5.00;;
39620;SDS011;25309;48.686;9.170;2023-09-08T13:21:40;5.93;;;5.30;;
39620;SDS011;25309;48.686;9.170;2023-09-08T13:24:07;5.80;;;4.95;;
39620;SDS011;25309;48.686;9.170;2023-09-08T13:26:34;5.90;;;4.70;;
39620;SDS011;25309;48.686;9.170;2023-09-08T13:29:01;5.35;;;4.85;;
39620;SDS011;25309;48.686;9.170;2023-09-08T13:31:29;5.13;;;4.63;;
39620;SDS011;25309;48.686;9.170;2023-09-08T13:33:56;5.70;;;5.20;;
39620;SDS011;25309;48.686;9.170;2023-09-08T13:36:25;6.55;;;4.50;;
39620;SDS011;25309;48.686;9.170;2023-09-08T13:38:52;5.20;;;4.70;;
39620;SDS011;25309;48.686;9.170;2023-09-08T13:41:19;5.90;;;5.30;;
39620;SDS011;25309;48.686;9.170;2023-09-08T13:43:46;5.20;;;4.70;;
39620;SDS011;25309;48.686;9.170;2023-09-08T13:46:13;5.63;;;5.13;;
39620;SDS011;25309;48.686;9.170;2023-09-08T13:48:40;6.20;;;4.97;;
39620;SDS011;25309;48.686;9.170;2023-09-08T13:51:08;6.18;;;5.20;;
39620;SDS011;25309;48.686;9.170;2023-09-08T13:53:37;6.18;;;5.07;;
39620;SDS011;25309;48.686;9.170;2023-09-08T13:56:12;7.50;;;5.78;;
39620;SDS011;25309;48.686;9.170;2023-09-08T13:58:40;7.00;;;5.45;;
39620;SDS011;25309;48.686;9.170;2023-09-08T14:01:14;6.40;;;5.38;;
39620;SDS011;25309;48.686;9.170;2023-09-08T14:03:44;6.03;;;4.93;;
39620;SDS011;25309;48.686;9.170;2023-09-08T14:06:28;6.00;;;5.40;;
39620;SDS011;25309;48.686;9.170;2023-09-08T14:09:06;6.00;;;5.40;;
39620;SDS011;25309;48.686;9.170;2023-09-08T14:11:36;5.95;;;5.05;;
39620;SDS011;25309;48.686;9.170;2023-09-08T14:14:06;6.15;;;4.93;;
39620;SDS011;25309;48.686;9.170;2023-09-08T14:16:33;5.90;;;5.30;;
39620;SDS011;25309;48.686;9.170;2023-09-08T14:19:00;8.00;;;5.28;;
39620;SDS011;25309;48.686;9.170;2023-09-08T14:21:27;6.05;;;5.05;;
39620;SDS011;25309;48.686;9.170;2023-09-08T14:23:56;5.93;;;5.38;;
39620;SDS011;25309;48.686;9.170;2023-09-08T14:26:24;5.82;;;5.32;;
39620;SDS011;25309;48.686;9.170;2023-09-08T14:28:52;5.93;;;4.95;;
39620;SDS011;25309;48.686;9.170;2023-09-08T14:31:19;5.60;;;5.10;;
39620;SDS011;25309;48.686;9.170;2023-09-08T14:33:47;5.25;;;4.75;;
39620;SDS011;25309;48.686;9.170;2023-09-08T14:36:16;6.78;;;5.30;;
39620;SDS011;25309;48.686;9.170;2023-09-08T14:38:44;5.93;;;5.30;;
39620;SDS011;25309;48.686;9.170;2023-09-08T14:41:11;5.88;;;5.28;;
39620;SDS011;25309;48.686;9.170;2023-09-08T14:43:39;6.68;;;5.32;;
39620;SDS011;25309;48.686;9.170;2023-09-08T14:46:06;6.50;;;5.07;;
39620;SDS011;25309;48.686;9.170;2023-09-08T14:48:33;5.03;;;4.63;;
39620;SDS011;25309;48.686;9.170;2023-09-08T14:51:02;5.65;;;5.15;;
39620;SDS011;25309;48.686;9.170;2023-09-08T14:53:30;6.05;;;5.13;;
39620;SDS011;25309;48.686;9.170;2023-09-08T14:55:58;6.32;;;4.95;;
39620;SDS011;25309;48.686;9.170;2023-09-08T14:58:25;6.63;;;5.10;;
39620;SDS011;25309;48.686;9.170;2023-09-08T15:00:59;6.03;;;4.60;;